createdAt,value
2022-11-15T00:00:56.570Z,18.30
2022-11-15T00:03:25.829Z,17.00
2022-11-15T00:05:52.467Z,16.70
2022-11-15T00:08:19.127Z,18.50
2022-11-15T00:10:56.173Z,18.60
2022-11-15T00:13:22.629Z,16.80
2022-11-15T00:15:49.251Z,18.50
2022-11-15T00:18:16.771Z,19.30
2022-11-15T00:20:43.898Z,19.00
2022-11-15T00:23:10.781Z,18.10
2022-11-15T00:25:37.293Z,16.40
2022-11-15T00:28:04.210Z,17.40
2022-11-15T00:30:31.456Z,15.10
2022-11-15T00:32:57.862Z,17.40
2022-11-15T00:35:24.493Z,16.80
2022-11-15T00:37:50.882Z,15.90
2022-11-15T00:40:17.279Z,16.20
2022-11-15T00:42:44.003Z,15.00
2022-11-15T00:45:10.795Z,18.60
2022-11-15T00:47:37.230Z,15.20
2022-11-15T00:50:04.709Z,14.00
2022-11-15T00:52:31.235Z,13.00
2022-11-15T00:54:57.623Z,13.00
2022-11-15T00:57:24.058Z,14.10
2022-11-15T00:59:50.419Z,15.80
2022-11-15T01:02:16.917Z,15.90
2022-11-15T01:04:43.451Z,13.20
2022-11-15T01:07:10.001Z,13.30
2022-11-15T01:09:36.558Z,15.00
2022-11-15T01:12:03.246Z,14.90
2022-11-15T01:14:29.706Z,13.00
2022-11-15T01:16:56.240Z,15.70
2022-11-15T01:19:22.658Z,12.50
2022-11-15T01:21:52.702Z,13.10
2022-11-15T01:24:19.284Z,14.20
2022-11-15T01:26:45.778Z,13.20
2022-11-15T01:29:12.252Z,14.00
2022-11-15T01:31:39.083Z,12.90
2022-11-15T01:34:05.766Z,12.40
2022-11-15T01:36:32.527Z,12.00
2022-11-15T01:38:59.763Z,12.50
2022-11-15T01:41:33.049Z,11.70
2022-11-15T01:44:34.473Z,12.70
2022-11-15T01:47:04.422Z,11.90
2022-11-15T01:49:34.515Z,16.90
2022-11-15T01:52:03.110Z,14.40
2022-11-15T01:54:30.253Z,15.70
2022-11-15T01:57:02.619Z,14.30
2022-11-15T01:59:29.578Z,14.80
2022-11-15T02:01:56.495Z,13.90
2022-11-15T02:04:34.997Z,15.60
2022-11-15T02:07:04.468Z,13.20
2022-11-15T02:09:31.384Z,13.00
2022-11-15T02:11:58.611Z,12.40
2022-11-15T02:14:28.496Z,13.20
2022-11-15T02:17:26.031Z,11.50
2022-11-15T02:20:14.416Z,12.10
2022-11-15T02:22:53.102Z,13.00
2022-11-15T02:25:28.783Z,15.10
2022-11-15T02:28:27.842Z,13.20
2022-11-15T02:31:03.551Z,13.80
2022-11-15T02:34:03.546Z,17.70
2022-11-15T02:36:48.327Z,20.80
2022-11-15T02:39:27.061Z,17.90
2022-11-15T02:42:04.972Z,21.20
2022-11-15T02:44:46.192Z,20.90
2022-11-15T02:47:17.720Z,17.10
2022-11-15T02:49:49.961Z,14.80
2022-11-15T02:52:23.277Z,13.90
2022-11-15T02:55:00.982Z,15.20
2022-11-15T02:57:42.639Z,14.90
2022-11-15T03:00:16.375Z,18.30
2022-11-15T03:03:13.642Z,15.90
2022-11-15T03:05:52.366Z,16.00
2022-11-15T03:08:40.728Z,15.30
2022-11-15T03:11:17.023Z,14.90
2022-11-15T03:14:41.026Z,14.40
2022-11-15T03:17:44.275Z,15.50
2022-11-15T03:20:13.026Z,15.00
2022-11-15T03:22:44.533Z,15.40
2022-11-15T03:25:17.204Z,15.10
2022-11-15T03:27:49.514Z,14.70
2022-11-15T03:30:16.810Z,13.80
2022-11-15T03:32:48.575Z,13.50
2022-11-15T03:35:28.280Z,13.60
2022-11-15T03:38:00.636Z,13.70
2022-11-15T03:40:36.812Z,14.00
2022-11-15T03:43:28.566Z,15.60
2022-11-15T03:46:25.534Z,14.30
2022-11-15T03:48:58.057Z,14.00
2022-11-15T03:51:24.604Z,13.50
2022-11-15T03:53:51.308Z,15.00
2022-11-15T03:56:17.976Z,12.80
2022-11-15T03:58:44.333Z,13.00
2022-11-15T04:01:10.754Z,14.90
2022-11-15T04:03:37.504Z,15.60
2022-11-15T04:06:04.024Z,16.70
2022-11-15T04:08:30.443Z,18.90
2022-11-15T04:10:56.921Z,17.60
2022-11-15T04:13:23.379Z,19.60
2022-11-15T04:15:49.850Z,19.70
2022-11-15T04:18:16.426Z,16.80
2022-11-15T04:21:01.609Z,18.80
2022-11-15T04:24:06.654Z,17.40
2022-11-15T04:26:33.614Z,16.00
2022-11-15T04:29:18.647Z,17.10
2022-11-15T04:31:45.055Z,15.70
2022-11-15T04:34:11.885Z,14.90
2022-11-15T04:36:57.166Z,14.40
2022-11-15T04:39:23.596Z,13.80
2022-11-15T04:41:50.064Z,12.90
2022-11-15T04:44:17.358Z,11.50
2022-11-15T04:46:43.829Z,15.80
2022-11-15T04:49:10.240Z,13.60
2022-11-15T04:51:36.827Z,12.10
2022-11-15T04:54:03.383Z,12.90
2022-11-15T04:56:29.864Z,10.80
2022-11-15T04:58:56.309Z,10.70
2022-11-15T05:01:22.807Z,10.40
2022-11-15T05:04:08.313Z,9.80
2022-11-15T05:06:34.774Z,9.20
2022-11-15T05:09:01.257Z,10.70
2022-11-15T05:11:30.635Z,11.00
2022-11-15T05:13:57.196Z,12.40
2022-11-15T05:16:23.581Z,8.80
2022-11-15T05:18:54.271Z,9.70
2022-11-15T05:21:21.347Z,8.40
2022-11-15T05:23:48.145Z,8.30
2022-11-15T05:26:16.884Z,10.90
2022-11-15T05:28:43.257Z,9.50
2022-11-15T05:31:14.412Z,9.20
2022-11-15T05:33:43.144Z,8.20
2022-11-15T05:36:31.073Z,9.50
2022-11-15T05:38:57.770Z,9.70
2022-11-15T05:41:38.181Z,8.20
2022-11-15T05:44:08.224Z,8.70
2022-11-15T05:46:36.214Z,9.40
2022-11-15T05:49:03.011Z,12.10
2022-11-15T05:51:30.476Z,12.90
2022-11-15T05:53:59.097Z,12.20
2022-11-15T05:56:26.825Z,10.00
2022-11-15T05:58:59.515Z,7.40
2022-11-15T06:01:27.904Z,6.50
2022-11-15T06:03:54.509Z,6.00
2022-11-15T06:06:21.104Z,5.70
2022-11-15T06:08:48.839Z,7.70
2022-11-15T06:11:15.383Z,7.40
2022-11-15T06:13:41.826Z,7.60
2022-11-15T06:16:08.313Z,8.90
2022-11-15T06:18:35.744Z,7.70
2022-11-15T06:21:02.593Z,6.70
2022-11-15T06:23:29.742Z,6.40
2022-11-15T06:25:59.593Z,5.50
2022-11-15T06:28:29.219Z,6.40
2022-11-15T06:30:55.756Z,6.20
2022-11-15T06:33:22.208Z,7.50
2022-11-15T06:35:48.581Z,5.40
2022-11-15T06:38:15.053Z,7.40
2022-11-15T06:40:41.546Z,7.40
2022-11-15T06:43:08.539Z,6.00
2022-11-15T06:45:35.188Z,7.20
2022-11-15T06:48:02.052Z,6.90
2022-11-15T06:50:28.579Z,7.80
2022-11-15T06:52:55.742Z,6.70
2022-11-15T06:55:22.219Z,7.50
2022-11-15T06:57:50.968Z,6.60
2022-11-15T07:00:20.075Z,6.20
2022-11-15T07:02:47.317Z,6.20
2022-11-15T07:05:15.514Z,8.60
2022-11-15T07:07:42.069Z,7.40
2022-11-15T07:10:09.809Z,6.00
2022-11-15T07:12:36.233Z,6.90
2022-11-15T07:15:02.988Z,5.10
2022-11-15T07:17:29.343Z,6.70
2022-11-15T07:19:55.747Z,5.00
2022-11-15T07:22:22.171Z,6.30
2022-11-15T07:24:48.715Z,8.10
2022-11-15T07:27:15.366Z,5.50
2022-11-15T07:29:41.880Z,7.40
2022-11-15T07:32:08.294Z,5.60
2022-11-15T07:34:34.734Z,6.00
2022-11-15T07:37:01.376Z,5.70
2022-11-15T07:39:27.912Z,6.50
2022-11-15T07:42:14.338Z,6.30
2022-11-15T07:44:40.727Z,5.70
2022-11-15T07:47:07.115Z,6.40
2022-11-15T07:49:33.530Z,6.20
2022-11-15T07:51:59.998Z,6.60
2022-11-15T07:54:26.441Z,5.70
2022-11-15T07:56:52.850Z,6.10
2022-11-15T07:59:20.274Z,6.60
2022-11-15T08:01:46.773Z,6.00
2022-11-15T08:04:13.245Z,4.80
2022-11-15T08:06:39.622Z,6.00
2022-11-15T08:09:06.081Z,5.70
2022-11-15T08:11:32.517Z,6.30
2022-11-15T08:14:00.160Z,5.00
2022-11-15T08:16:26.583Z,6.30
2022-11-15T08:18:53.020Z,7.10
2022-11-15T08:21:21.477Z,5.40
2022-11-15T08:23:48.441Z,5.20
2022-11-15T08:26:15.468Z,5.00
2022-11-15T08:28:42.143Z,5.10
2022-11-15T08:31:15.162Z,4.40
2022-11-15T08:33:41.592Z,6.10
2022-11-15T08:36:14.150Z,5.70
2022-11-15T08:38:40.539Z,5.20
2022-11-15T08:41:07.290Z,5.00
2022-11-15T08:43:34.541Z,5.80
2022-11-15T08:46:01.463Z,5.00
2022-11-15T08:48:27.897Z,5.20
2022-11-15T08:50:56.263Z,6.10
2022-11-15T08:53:22.892Z,5.20
2022-11-15T08:55:49.249Z,5.50
2022-11-15T08:58:15.748Z,4.40
2022-11-15T09:00:42.274Z,5.60
2022-11-15T09:03:10.401Z,5.10
2022-11-15T09:05:38.659Z,3.80
2022-11-15T09:08:19.090Z,4.80
2022-11-15T09:10:52.452Z,5.50
2022-11-15T09:13:18.854Z,4.70
2022-11-15T09:15:45.287Z,5.60
2022-11-15T09:18:11.739Z,4.80
2022-11-15T09:20:38.160Z,5.20
2022-11-15T09:23:06.005Z,4.60
2022-11-15T09:25:33.074Z,6.20
2022-11-15T09:27:59.571Z,4.90
2022-11-15T09:30:27.351Z,4.40
2022-11-15T09:32:53.729Z,4.80
2022-11-15T09:35:20.133Z,4.90
2022-11-15T09:37:46.727Z,3.60
2022-11-15T09:40:17.831Z,4.70
2022-11-15T09:42:54.084Z,5.80
2022-11-15T09:45:32.029Z,5.90
2022-11-15T09:48:36.738Z,4.70
2022-11-15T09:51:05.775Z,6.00
2022-11-15T09:54:13.623Z,5.00
2022-11-15T09:56:23.329Z,3.90
2022-11-15T09:59:32.480Z,3.60
2022-11-15T10:02:16.905Z,5.40
2022-11-15T10:04:43.981Z,5.30
2022-11-15T10:07:43.643Z,4.80
2022-11-15T10:10:26.844Z,6.50
2022-11-15T10:12:54.267Z,4.60
2022-11-15T10:15:23.650Z,4.00
2022-11-15T10:17:52.977Z,4.90
2022-11-15T10:20:27.451Z,5.20
2022-11-15T10:22:57.482Z,5.00
2022-11-15T10:25:26.988Z,4.10
2022-11-15T10:27:56.631Z,5.50
2022-11-15T10:30:24.283Z,4.40
2022-11-15T10:32:50.913Z,5.10
2022-11-15T10:35:24.321Z,5.50
2022-11-15T10:37:50.879Z,5.50
2022-11-15T10:40:24.638Z,3.90
2022-11-15T10:43:15.500Z,5.10
2022-11-15T10:45:42.888Z,5.10
2022-11-15T10:48:15.393Z,4.40
2022-11-15T10:50:47.228Z,5.00
2022-11-15T10:53:38.787Z,5.50
2022-11-15T10:56:09.850Z,3.80
2022-11-15T10:58:41.951Z,3.50
2022-11-15T11:01:14.853Z,4.10
2022-11-15T11:03:43.026Z,4.30
2022-11-15T11:06:18.710Z,4.40
2022-11-15T11:08:57.313Z,2.90
2022-11-15T11:11:24.297Z,3.70
2022-11-15T11:13:51.101Z,3.30
2022-11-15T11:16:36.314Z,4.30
2022-11-15T11:19:24.112Z,5.50
2022-11-15T11:22:25.673Z,4.50
2022-11-15T11:25:15.700Z,4.20
2022-11-15T11:28:20.551Z,3.10
2022-11-15T11:31:05.081Z,4.30
2022-11-15T11:33:37.475Z,4.40
2022-11-15T11:36:24.422Z,4.80
2022-11-15T11:38:59.441Z,3.90
2022-11-15T11:41:31.726Z,3.50
2022-11-15T11:44:24.572Z,5.00
2022-11-15T11:47:19.615Z,4.10
2022-11-15T11:49:52.480Z,3.50
2022-11-15T11:52:39.658Z,4.00
2022-11-15T11:55:17.390Z,3.20
2022-11-15T11:58:08.898Z,3.60
2022-11-15T12:00:42.265Z,3.40
2022-11-15T12:03:08.815Z,3.30
2022-11-15T12:05:46.129Z,3.60
2022-11-15T12:08:40.728Z,4.50
2022-11-15T12:11:30.118Z,3.20
2022-11-15T12:14:04.550Z,3.10
2022-11-15T12:16:33.600Z,2.70
2022-11-15T12:19:02.255Z,2.80
2022-11-15T12:21:56.754Z,3.40
2022-11-15T12:24:29.633Z,2.40
2022-11-15T12:27:06.339Z,2.70
2022-11-15T12:29:39.668Z,3.20
2022-11-15T12:32:18.530Z,4.00
2022-11-15T12:34:49.082Z,2.80
2022-11-15T12:37:38.736Z,3.10
2022-11-15T12:40:36.066Z,2.50
2022-11-15T12:43:41.951Z,3.60
2022-11-15T12:46:14.142Z,3.50
2022-11-15T12:48:40.468Z,2.90
2022-11-15T12:51:07.003Z,3.10
2022-11-15T12:53:35.923Z,4.30
2022-11-15T12:56:05.290Z,3.90
2022-11-15T12:58:47.357Z,4.10
2022-11-15T13:01:32.839Z,3.50
2022-11-15T13:04:14.681Z,3.70
2022-11-15T13:06:53.719Z,3.60
2022-11-15T13:09:38.542Z,4.20
2022-11-15T13:12:13.601Z,4.20
2022-11-15T13:14:51.198Z,4.20
2022-11-15T13:17:20.597Z,5.20
2022-11-15T13:19:53.496Z,3.70
2022-11-15T13:22:38.617Z,4.50
2022-11-15T13:25:20.835Z,3.50
2022-11-15T13:27:50.161Z,3.00
2022-11-15T13:30:26.089Z,4.60
2022-11-15T13:32:53.737Z,3.80
2022-11-15T13:35:25.851Z,3.80
2022-11-15T13:37:53.710Z,6.40
2022-11-15T13:40:25.559Z,2.60
2022-11-15T13:42:52.093Z,4.90
2022-11-15T13:45:20.635Z,5.70
2022-11-15T13:47:53.293Z,5.70
2022-11-15T13:50:25.788Z,4.30
2022-11-15T13:52:53.664Z,3.60
2022-11-15T13:55:23.522Z,4.50
2022-11-15T13:57:54.582Z,4.10
2022-11-15T14:00:38.802Z,4.40
2022-11-15T14:03:17.397Z,4.50
2022-11-15T14:05:44.522Z,2.70
2022-11-15T14:08:29.270Z,3.30
2022-11-15T14:11:16.010Z,3.80
2022-11-15T14:13:43.393Z,3.90
2022-11-15T14:16:24.194Z,3.20
2022-11-15T14:18:53.057Z,3.20
2022-11-15T14:21:20.900Z,3.70
2022-11-15T14:23:47.544Z,3.20
2022-11-15T14:26:32.301Z,4.10
2022-11-15T14:29:36.539Z,3.30
2022-11-15T14:32:24.060Z,3.00
2022-11-15T14:35:01.781Z,3.00
2022-11-15T14:37:36.123Z,3.10
2022-11-15T14:40:05.633Z,3.20
2022-11-15T14:42:32.233Z,2.50
2022-11-15T14:44:59.071Z,3.50
2022-11-15T14:47:25.483Z,3.60
2022-11-15T14:49:51.894Z,5.00
2022-11-15T14:52:31.566Z,2.90
2022-11-15T14:55:00.550Z,2.50
2022-11-15T14:57:26.943Z,2.90
2022-11-15T14:59:53.512Z,2.50
2022-11-15T15:02:22.586Z,3.50
2022-11-15T15:04:49.540Z,4.50
2022-11-15T15:07:17.137Z,6.60
2022-11-15T15:09:44.599Z,4.90
2022-11-15T15:12:24.471Z,3.80
2022-11-15T15:14:52.153Z,3.80
2022-11-15T15:17:19.088Z,3.70
2022-11-15T15:19:45.643Z,4.20
2022-11-15T15:22:17.458Z,3.50
2022-11-15T15:24:45.251Z,3.50
2022-11-15T15:27:12.137Z,3.90
2022-11-15T15:29:39.451Z,4.80
2022-11-15T15:32:06.453Z,3.90
2022-11-15T15:34:33.607Z,4.70
2022-11-15T15:37:19.024Z,5.00
2022-11-15T15:39:45.457Z,5.00
2022-11-15T15:42:11.986Z,5.00
2022-11-15T15:44:38.653Z,5.00
2022-11-15T15:47:16.512Z,5.20
2022-11-15T15:49:43.564Z,5.00
2022-11-15T15:52:10.055Z,5.30
2022-11-15T15:54:36.457Z,5.50
2022-11-15T15:57:03.118Z,4.70
2022-11-15T15:59:29.683Z,7.00
2022-11-15T16:01:56.061Z,4.30
2022-11-15T16:04:22.809Z,8.20
2022-11-15T16:06:51.279Z,5.70
2022-11-15T16:09:20.784Z,7.60
2022-11-15T16:11:48.039Z,5.00
2022-11-15T16:14:14.477Z,8.50
2022-11-15T16:16:41.211Z,9.50
2022-11-15T16:19:11.361Z,7.60
2022-11-15T16:21:37.771Z,6.50
2022-11-15T16:24:04.481Z,7.70
2022-11-15T16:26:31.111Z,7.00
2022-11-15T16:28:58.459Z,8.90
2022-11-15T16:31:24.880Z,7.00
2022-11-15T16:33:51.247Z,7.00
2022-11-15T16:36:23.419Z,7.80
2022-11-15T16:38:53.699Z,7.10
2022-11-15T16:41:20.182Z,10.50
2022-11-15T16:43:46.887Z,9.30
2022-11-15T16:46:27.993Z,8.10
2022-11-15T16:48:55.120Z,7.30
2022-11-15T16:51:22.726Z,9.10
2022-11-15T16:53:50.038Z,10.80
2022-11-15T16:56:26.510Z,10.00
2022-11-15T16:58:58.544Z,8.50
2022-11-15T17:01:26.659Z,7.40
2022-11-15T17:03:54.125Z,10.10
2022-11-15T17:06:21.834Z,8.70
2022-11-15T17:08:48.797Z,9.50
2022-11-15T17:11:20.899Z,9.20
2022-11-15T17:13:48.735Z,9.70
2022-11-15T17:16:17.556Z,12.30
2022-11-15T17:18:47.374Z,9.90
2022-11-15T17:21:16.355Z,9.60
2022-11-15T17:23:43.384Z,11.30
2022-11-15T17:26:28.735Z,11.80
2022-11-15T17:28:56.512Z,13.20
2022-11-15T17:31:23.304Z,10.10
2022-11-15T17:33:49.753Z,9.80
2022-11-15T17:36:19.442Z,11.20
2022-11-15T17:38:50.334Z,12.40
2022-11-15T17:41:17.210Z,14.50
2022-11-15T17:43:44.174Z,10.60
2022-11-15T17:46:16.960Z,12.50
2022-11-15T17:48:44.304Z,10.80
2022-11-15T17:51:12.976Z,11.50
2022-11-15T17:53:41.448Z,11.40
2022-11-15T17:56:18.942Z,9.60
2022-11-15T17:58:53.814Z,11.00
2022-11-15T18:01:32.157Z,14.40
2022-11-15T18:04:00.668Z,10.50
2022-11-15T18:06:30.613Z,10.20
2022-11-15T18:08:57.870Z,10.70
2022-11-15T18:11:30.389Z,9.70
2022-11-15T18:13:59.982Z,10.90
2022-11-15T18:16:30.917Z,9.70
2022-11-15T18:18:58.096Z,11.80
2022-11-15T18:21:27.914Z,10.40
2022-11-15T18:23:59.919Z,12.70
2022-11-15T18:26:28.731Z,12.20
2022-11-15T18:28:57.710Z,10.20
2022-11-15T18:31:28.070Z,13.90
2022-11-15T18:33:55.168Z,11.10
2022-11-15T18:36:30.649Z,9.70
2022-11-15T18:38:59.621Z,8.70
2022-11-15T18:41:29.761Z,7.80
2022-11-15T18:43:58.427Z,10.60
2022-11-15T18:46:27.191Z,8.80
2022-11-15T18:48:55.185Z,8.80
2022-11-15T18:51:26.284Z,8.90
2022-11-15T18:53:54.344Z,8.20
2022-11-15T18:56:22.293Z,9.10
2022-11-15T18:58:51.046Z,11.00
2022-11-15T19:01:22.986Z,9.20
2022-11-15T19:03:51.758Z,7.70
2022-11-15T19:06:20.775Z,7.10
2022-11-15T19:08:50.339Z,8.80
2022-11-15T19:11:21.215Z,8.30
2022-11-15T19:13:47.986Z,6.70
2022-11-15T19:16:15.986Z,8.00
2022-11-15T19:18:42.773Z,7.70
2022-11-15T19:21:16.060Z,7.50
2022-11-15T19:23:43.412Z,7.80
2022-11-15T19:26:15.470Z,6.50
2022-11-15T19:28:43.031Z,7.40
2022-11-15T19:31:15.074Z,7.10
2022-11-15T19:33:43.376Z,7.90
2022-11-15T19:36:15.878Z,7.60
2022-11-15T19:38:43.292Z,6.60
2022-11-15T19:41:12.203Z,7.50
2022-11-15T19:43:38.863Z,7.00
2022-11-15T19:46:07.253Z,6.30
2022-11-15T19:48:34.464Z,6.40
2022-11-15T19:51:05.544Z,9.40
2022-11-15T19:53:35.521Z,8.40
2022-11-15T19:56:05.162Z,8.20
2022-11-15T19:58:31.852Z,6.80
2022-11-15T20:01:04.010Z,8.50
2022-11-15T20:03:32.615Z,7.00
2022-11-15T20:06:08.296Z,6.90
2022-11-15T20:08:35.747Z,6.90
2022-11-15T20:11:03.614Z,7.20
2022-11-15T20:13:30.770Z,6.70
2022-11-15T20:15:58.518Z,9.20
2022-11-15T20:18:26.608Z,7.50
2022-11-15T20:20:56.604Z,11.50
2022-11-15T20:23:23.519Z,8.10
2022-11-15T20:25:50.425Z,9.80
2022-11-15T20:28:19.488Z,9.90
2022-11-15T20:30:47.434Z,8.50
2022-11-15T20:33:14.808Z,8.10
2022-11-15T20:35:41.596Z,8.60
2022-11-15T20:38:08.997Z,7.30
2022-11-15T20:44:16.480Z,8.40
2022-11-15T20:46:42.915Z,7.60
2022-11-15T20:49:09.630Z,7.50
2022-11-15T20:51:36.906Z,9.70
2022-11-15T20:54:04.057Z,8.90
2022-11-15T20:56:30.596Z,9.70
2022-11-15T20:58:56.987Z,8.70
2022-11-15T21:01:24.788Z,9.60
2022-11-15T21:03:52.918Z,8.30
2022-11-15T21:06:20.970Z,8.10
2022-11-15T21:09:07.509Z,8.70
2022-11-15T21:11:52.615Z,8.10
2022-11-15T21:14:19.185Z,7.80
2022-11-15T21:16:45.785Z,8.40
2022-11-15T21:19:12.326Z,7.40
2022-11-15T21:21:38.776Z,8.50
2022-11-15T21:24:07.874Z,8.60
2022-11-15T21:26:35.661Z,7.00
2022-11-15T21:29:03.119Z,9.10
2022-11-15T21:31:30.112Z,5.90
2022-11-15T21:33:56.509Z,8.50
2022-11-15T21:36:25.108Z,6.50
2022-11-15T21:38:51.569Z,8.80
2022-11-15T21:41:18.078Z,8.50
2022-11-15T21:43:44.605Z,7.70
2022-11-15T21:46:11.066Z,7.90
2022-11-15T21:48:37.631Z,7.80
2022-11-15T21:51:06.805Z,8.50
2022-11-15T21:53:33.862Z,8.00
2022-11-15T21:56:01.108Z,6.80
2022-11-15T21:58:28.170Z,8.60
2022-11-15T22:01:13.884Z,8.90
2022-11-15T22:03:40.944Z,7.80
2022-11-15T22:06:07.466Z,7.40
2022-11-15T22:08:34.378Z,6.80
2022-11-15T22:11:01.229Z,7.90
2022-11-15T22:13:27.894Z,7.70
2022-11-15T22:15:54.817Z,8.10
2022-11-15T22:18:26.355Z,10.80
2022-11-15T22:21:00.682Z,9.00
2022-11-15T22:23:30.619Z,8.90
2022-11-15T22:25:57.096Z,9.00
2022-11-15T22:28:24.089Z,8.70
2022-11-15T22:30:53.673Z,9.90
2022-11-15T22:33:22.489Z,7.00
2022-11-15T22:35:49.762Z,7.30
2022-11-15T22:38:16.751Z,7.90
2022-11-15T22:40:43.807Z,9.40
2022-11-15T22:43:13.210Z,9.10
2022-11-15T22:45:47.830Z,9.70
2022-11-15T22:48:14.377Z,9.50
2022-11-15T22:50:41.723Z,8.40
2022-11-15T22:53:08.168Z,10.10
2022-11-15T22:55:34.845Z,8.20
2022-11-15T22:58:01.278Z,9.10
2022-11-15T23:00:27.779Z,9.60
2022-11-15T23:02:54.518Z,7.90
2022-11-15T23:05:21.365Z,7.30
2022-11-15T23:07:47.871Z,8.60
2022-11-15T23:10:32.723Z,9.20
2022-11-15T23:13:16.039Z,8.60
2022-11-15T23:16:02.555Z,7.70
2022-11-15T23:18:29.153Z,8.50
2022-11-15T23:20:55.787Z,10.90
2022-11-15T23:23:22.258Z,10.20
2022-11-15T23:25:57.687Z,10.30
2022-11-15T23:28:24.170Z,7.60
2022-11-15T23:31:09.339Z,8.30
2022-11-15T23:33:54.487Z,11.10
2022-11-15T23:36:21.062Z,7.50
2022-11-15T23:38:47.733Z,8.90
2022-11-15T23:41:14.327Z,8.30
2022-11-15T23:43:40.818Z,11.40
2022-11-15T23:46:07.340Z,8.00
2022-11-15T23:48:33.995Z,10.60
2022-11-15T23:51:00.715Z,7.80
2022-11-15T23:53:27.410Z,9.40
2022-11-15T23:56:00.145Z,7.70
2022-11-15T23:58:26.777Z,10.30
